sensor_id;sensor_type;location;lat;lon;timestamp;P1;durP1;ratioP1;P2;durP2;ratioP2
29570;SDS011;16814;52.118;11.436;2022-07-01T00:01:19;15.60;;;11.48;;
29570;SDS011;16814;52.118;11.436;2022-07-01T00:03:45;16.42;;;10.90;;
29570;SDS011;16814;52.118;11.436;2022-07-01T00:06:17;19.55;;;11.52;;
29570;SDS011;16814;52.118;11.436;2022-07-01T00:08:46;17.05;;;11.55;;
29570;SDS011;16814;52.118;11.436;2022-07-01T00:11:13;15.00;;;11.00;;
29570;SDS011;16814;52.118;11.436;2022-07-01T00:13:41;16.20;;;11.77;;
29570;SDS011;16814;52.118;11.436;2022-07-01T00:16:09;15.93;;;11.77;;
29570;SDS011;16814;52.118;11.436;2022-07-01T00:18:34;18.13;;;12.32;;
29570;SDS011;16814;52.118;11.436;2022-07-01T00:21:02;19.97;;;12.50;;
29570;SDS011;16814;52.118;11.436;2022-07-01T00:23:29;21.17;;;13.23;;
29570;SDS011;16814;52.118;11.436;2022-07-01T00:25:56;17.77;;;12.27;;
29570;SDS011;16814;52.118;11.436;2022-07-01T00:28:22;18.17;;;13.60;;
29570;SDS011;16814;52.118;11.436;2022-07-01T00:30:49;18.93;;;12.80;;
29570;SDS011;16814;52.118;11.436;2022-07-01T00:33:17;15.57;;;12.95;;
29570;SDS011;16814;52.118;11.436;2022-07-01T00:35:42;20.45;;;13.32;;
29570;SDS011;16814;52.118;11.436;2022-07-01T00:38:08;17.63;;;13.47;;
29570;SDS011;16814;52.118;11.436;2022-07-01T00:40:33;19.33;;;13.97;;
29570;SDS011;16814;52.118;11.436;2022-07-01T00:43:02;18.55;;;14.10;;
29570;SDS011;16814;52.118;11.436;2022-07-01T00:45:29;20.87;;;14.50;;
29570;SDS011;16814;52.118;11.436;2022-07-01T00:47:56;19.60;;;13.93;;
29570;SDS011;16814;52.118;11.436;2022-07-01T00:50:22;19.40;;;14.82;;
29570;SDS011;16814;52.118;11.436;2022-07-01T00:52:49;21.60;;;14.38;;
29570;SDS011;16814;52.118;11.436;2022-07-01T00:55:16;18.92;;;13.60;;
29570;SDS011;16814;52.118;11.436;2022-07-01T00:57:43;18.47;;;14.30;;
29570;SDS011;16814;52.118;11.436;2022-07-01T01:00:10;21.10;;;15.40;;
29570;SDS011;16814;52.118;11.436;2022-07-01T01:02:51;21.80;;;15.10;;
29570;SDS011;16814;52.118;11.436;2022-07-01T01:05:17;20.27;;;15.13;;
29570;SDS011;16814;52.118;11.436;2022-07-01T01:07:47;19.95;;;15.40;;
29570;SDS011;16814;52.118;11.436;2022-07-01T01:10:15;20.15;;;15.10;;
29570;SDS011;16814;52.118;11.436;2022-07-01T01:12:41;21.75;;;15.32;;
29570;SDS011;16814;52.118;11.436;2022-07-01T01:15:10;19.77;;;15.07;;
29570;SDS011;16814;52.118;11.436;2022-07-01T01:17:48;22.20;;;15.80;;
29570;SDS011;16814;52.118;11.436;2022-07-01T01:20:15;20.48;;;17.08;;
29570;SDS011;16814;52.118;11.436;2022-07-01T01:22:44;21.13;;;15.73;;
29570;SDS011;16814;52.118;11.436;2022-07-01T01:25:16;27.93;;;16.70;;
29570;SDS011;16814;52.118;11.436;2022-07-01T01:27:44;20.88;;;15.50;;
29570;SDS011;16814;52.118;11.436;2022-07-01T01:30:11;24.85;;;16.58;;
29570;SDS011;16814;52.118;11.436;2022-07-01T01:32:38;19.02;;;15.27;;
29570;SDS011;16814;52.118;11.436;2022-07-01T01:35:08;20.17;;;14.35;;
29570;SDS011;16814;52.118;11.436;2022-07-01T01:37:35;19.17;;;14.82;;
29570;SDS011;16814;52.118;11.436;2022-07-01T01:40:01;20.60;;;14.52;;
29570;SDS011;16814;52.118;11.436;2022-07-01T01:42:29;20.00;;;14.75;;
29570;SDS011;16814;52.118;11.436;2022-07-01T01:44:56;19.02;;;14.20;;
29570;SDS011;16814;52.118;11.436;2022-07-01T01:47:23;19.75;;;15.25;;
29570;SDS011;16814;52.118;11.436;2022-07-01T01:49:50;23.95;;;15.10;;
29570;SDS011;16814;52.118;11.436;2022-07-01T01:52:17;22.58;;;11.30;;
29570;SDS011;16814;52.118;11.436;2022-07-01T01:54:43;16.48;;;9.38;;
29570;SDS011;16814;52.118;11.436;2022-07-01T01:57:10;16.88;;;5.68;;
29570;SDS011;16814;52.118;11.436;2022-07-01T01:59:40;7.53;;;3.20;;
29570;SDS011;16814;52.118;11.436;2022-07-01T02:02:09;9.38;;;3.10;;
29570;SDS011;16814;52.118;11.436;2022-07-01T02:04:36;12.63;;;3.35;;
29570;SDS011;16814;52.118;11.436;2022-07-01T02:07:02;8.07;;;3.40;;
29570;SDS011;16814;52.118;11.436;2022-07-01T02:09:31;8.45;;;3.88;;
29570;SDS011;16814;52.118;11.436;2022-07-01T02:11:58;16.00;;;4.67;;
29570;SDS011;16814;52.118;11.436;2022-07-01T02:14:26;26.10;;;5.00;;
29570;SDS011;16814;52.118;11.436;2022-07-01T02:16:53;16.83;;;4.30;;
29570;SDS011;16814;52.118;11.436;2022-07-01T02:19:19;13.90;;;3.90;;
29570;SDS011;16814;52.118;11.436;2022-07-01T02:21:46;11.40;;;3.80;;
29570;SDS011;16814;52.118;11.436;2022-07-01T02:24:13;4.68;;;2.83;;
29570;SDS011;16814;52.118;11.436;2022-07-01T02:26:48;5.63;;;3.50;;
29570;SDS011;16814;52.118;11.436;2022-07-01T02:29:16;7.40;;;3.77;;
29570;SDS011;16814;52.118;11.436;2022-07-01T02:31:41;5.78;;;3.42;;
29570;SDS011;16814;52.118;11.436;2022-07-01T02:34:07;7.00;;;3.53;;
29570;SDS011;16814;52.118;11.436;2022-07-01T02:36:36;5.40;;;2.90;;
29570;SDS011;16814;52.118;11.436;2022-07-01T02:39:02;7.43;;;3.42;;
29570;SDS011;16814;52.118;11.436;2022-07-01T02:41:28;9.73;;;3.40;;
29570;SDS011;16814;52.118;11.436;2022-07-01T02:43:56;7.43;;;3.83;;
29570;SDS011;16814;52.118;11.436;2022-07-01T02:46:23;5.78;;;3.78;;
29570;SDS011;16814;52.118;11.436;2022-07-01T02:48:51;7.45;;;3.90;;
29570;SDS011;16814;52.118;11.436;2022-07-01T02:51:18;8.57;;;4.13;;
29570;SDS011;16814;52.118;11.436;2022-07-01T02:53:46;14.00;;;6.43;;
29570;SDS011;16814;52.118;11.436;2022-07-01T02:56:14;12.38;;;7.80;;
29570;SDS011;16814;52.118;11.436;2022-07-01T02:58:39;15.85;;;9.50;;
29570;SDS011;16814;52.118;11.436;2022-07-01T03:01:08;15.98;;;9.55;;
29570;SDS011;16814;52.118;11.436;2022-07-01T03:03:35;15.65;;;9.20;;
29570;SDS011;16814;52.118;11.436;2022-07-01T03:06:02;13.88;;;9.10;;
29570;SDS011;16814;52.118;11.436;2022-07-01T03:08:29;17.13;;;8.90;;
29570;SDS011;16814;52.118;11.436;2022-07-01T03:10:58;16.83;;;9.65;;
29570;SDS011;16814;52.118;11.436;2022-07-01T03:13:27;13.85;;;9.27;;
29570;SDS011;16814;52.118;11.436;2022-07-01T03:15:53;20.93;;;8.93;;
29570;SDS011;16814;52.118;11.436;2022-07-01T03:18:20;14.05;;;7.50;;
29570;SDS011;16814;52.118;11.436;2022-07-01T03:20:47;14.32;;;7.10;;
29570;SDS011;16814;52.118;11.436;2022-07-01T03:23:16;12.30;;;6.97;;
29570;SDS011;16814;52.118;11.436;2022-07-01T03:25:52;12.15;;;6.90;;
29570;SDS011;16814;52.118;11.436;2022-07-01T03:28:18;10.45;;;6.30;;
29570;SDS011;16814;52.118;11.436;2022-07-01T03:30:46;9.43;;;6.60;;
29570;SDS011;16814;52.118;11.436;2022-07-01T03:33:14;10.35;;;6.10;;
29570;SDS011;16814;52.118;11.436;2022-07-01T03:35:41;8.35;;;5.78;;
29570;SDS011;16814;52.118;11.436;2022-07-01T03:38:10;13.50;;;6.22;;
29570;SDS011;16814;52.118;11.436;2022-07-01T03:40:40;11.15;;;6.10;;
29570;SDS011;16814;52.118;11.436;2022-07-01T03:43:07;20.27;;;7.50;;
29570;SDS011;16814;52.118;11.436;2022-07-01T03:45:34;21.65;;;7.30;;
29570;SDS011;16814;52.118;11.436;2022-07-01T03:48:01;15.88;;;6.75;;
29570;SDS011;16814;52.118;11.436;2022-07-01T03:50:28;9.80;;;4.88;;
29570;SDS011;16814;52.118;11.436;2022-07-01T03:52:54;6.32;;;4.53;;
29570;SDS011;16814;52.118;11.436;2022-07-01T03:55:41;9.27;;;5.10;;
29570;SDS011;16814;52.118;11.436;2022-07-01T03:58:08;12.35;;;5.70;;
29570;SDS011;16814;52.118;11.436;2022-07-01T04:00:36;13.15;;;6.47;;
29570;SDS011;16814;52.118;11.436;2022-07-01T04:03:04;10.80;;;6.47;;
29570;SDS011;16814;52.118;11.436;2022-07-01T04:05:33;9.80;;;6.50;;
29570;SDS011;16814;52.118;11.436;2022-07-01T04:08:01;10.40;;;7.80;;
29570;SDS011;16814;52.118;11.436;2022-07-01T04:10:30;10.93;;;7.55;;
29570;SDS011;16814;52.118;11.436;2022-07-01T04:13:00;12.32;;;8.13;;
29570;SDS011;16814;52.118;11.436;2022-07-01T04:15:28;13.77;;;8.30;;
29570;SDS011;16814;52.118;11.436;2022-07-01T04:17:57;11.18;;;8.75;;
29570;SDS011;16814;52.118;11.436;2022-07-01T04:20:22;11.57;;;8.07;;
29570;SDS011;16814;52.118;11.436;2022-07-01T04:22:51;10.20;;;7.00;;
29570;SDS011;16814;52.118;11.436;2022-07-01T04:25:20;8.50;;;5.90;;
29570;SDS011;16814;52.118;11.436;2022-07-01T04:27:47;8.25;;;5.10;;
29570;SDS011;16814;52.118;11.436;2022-07-01T04:30:14;4.85;;;3.95;;
29570;SDS011;16814;52.118;11.436;2022-07-01T04:32:42;5.38;;;3.20;;
29570;SDS011;16814;52.118;11.436;2022-07-01T04:35:09;7.13;;;3.35;;
29570;SDS011;16814;52.118;11.436;2022-07-01T04:37:40;4.05;;;3.40;;
29570;SDS011;16814;52.118;11.436;2022-07-01T04:40:08;4.43;;;3.70;;
29570;SDS011;16814;52.118;11.436;2022-07-01T04:42:35;5.80;;;5.10;;
29570;SDS011;16814;52.118;11.436;2022-07-01T04:45:00;7.97;;;5.97;;
29570;SDS011;16814;52.118;11.436;2022-07-01T04:47:27;9.10;;;7.10;;
29570;SDS011;16814;52.118;11.436;2022-07-01T04:49:58;10.00;;;7.78;;
29570;SDS011;16814;52.118;11.436;2022-07-01T04:52:24;11.13;;;7.90;;
29570;SDS011;16814;52.118;11.436;2022-07-01T04:54:50;11.57;;;9.47;;
29570;SDS011;16814;52.118;11.436;2022-07-01T04:57:18;12.45;;;9.60;;
29570;SDS011;16814;52.118;11.436;2022-07-01T04:59:45;11.93;;;9.73;;
29570;SDS011;16814;52.118;11.436;2022-07-01T05:02:12;15.35;;;10.10;;
29570;SDS011;16814;52.118;11.436;2022-07-01T05:04:39;14.95;;;10.80;;
29570;SDS011;16814;52.118;11.436;2022-07-01T05:07:05;13.90;;;10.30;;
29570;SDS011;16814;52.118;11.436;2022-07-01T05:09:53;12.60;;;9.15;;
29570;SDS011;16814;52.118;11.436;2022-07-01T05:12:21;13.43;;;9.02;;
29570;SDS011;16814;52.118;11.436;2022-07-01T05:14:50;12.07;;;8.20;;
29570;SDS011;16814;52.118;11.436;2022-07-01T05:17:16;11.35;;;7.60;;
29570;SDS011;16814;52.118;11.436;2022-07-01T05:19:45;9.17;;;7.00;;
29570;SDS011;16814;52.118;11.436;2022-07-01T05:22:32;8.45;;;5.45;;
29570;SDS011;16814;52.118;11.436;2022-07-01T05:25:00;6.82;;;4.50;;
29570;SDS011;16814;52.118;11.436;2022-07-01T05:27:28;6.60;;;2.85;;
29570;SDS011;16814;52.118;11.436;2022-07-01T05:29:57;4.03;;;2.80;;
29570;SDS011;16814;52.118;11.436;2022-07-01T05:32:24;5.43;;;2.67;;
29570;SDS011;16814;52.118;11.436;2022-07-01T05:34:51;3.27;;;2.50;;
29570;SDS011;16814;52.118;11.436;2022-07-01T05:37:16;5.95;;;3.00;;
29570;SDS011;16814;52.118;11.436;2022-07-01T05:39:44;4.00;;;2.97;;
29570;SDS011;16814;52.118;11.436;2022-07-01T05:42:10;5.00;;;2.80;;
29570;SDS011;16814;52.118;11.436;2022-07-01T05:44:37;5.00;;;3.00;;
29570;SDS011;16814;52.118;11.436;2022-07-01T05:47:03;5.57;;;3.00;;
29570;SDS011;16814;52.118;11.436;2022-07-01T05:49:30;3.80;;;2.78;;
29570;SDS011;16814;52.118;11.436;2022-07-01T05:51:56;4.07;;;2.00;;
29570;SDS011;16814;52.118;11.436;2022-07-01T05:54:22;4.97;;;2.10;;
29570;SDS011;16814;52.118;11.436;2022-07-01T05:56:50;3.08;;;1.80;;
29570;SDS011;16814;52.118;11.436;2022-07-01T05:59:17;5.17;;;1.90;;
29570;SDS011;16814;52.118;11.436;2022-07-01T06:01:45;8.10;;;2.20;;
29570;SDS011;16814;52.118;11.436;2022-07-01T06:04:21;4.57;;;1.90;;
29570;SDS011;16814;52.118;11.436;2022-07-01T06:06:48;3.83;;;1.90;;
29570;SDS011;16814;52.118;11.436;2022-07-01T06:09:15;4.60;;;1.93;;
29570;SDS011;16814;52.118;11.436;2022-07-01T06:11:46;4.07;;;2.30;;
29570;SDS011;16814;52.118;11.436;2022-07-01T06:14:13;6.50;;;2.30;;
29570;SDS011;16814;52.118;11.436;2022-07-01T06:16:39;2.75;;;1.90;;
29570;SDS011;16814;52.118;11.436;2022-07-01T06:19:07;5.25;;;2.67;;
29570;SDS011;16814;52.118;11.436;2022-07-01T06:21:33;6.38;;;3.50;;
29570;SDS011;16814;52.118;11.436;2022-07-01T06:24:00;5.40;;;2.50;;
29570;SDS011;16814;52.118;11.436;2022-07-01T06:26:28;3.65;;;2.40;;
29570;SDS011;16814;52.118;11.436;2022-07-01T06:28:55;5.03;;;2.30;;
29570;SDS011;16814;52.118;11.436;2022-07-01T06:31:22;4.43;;;1.80;;
29570;SDS011;16814;52.118;11.436;2022-07-01T06:33:50;3.78;;;1.77;;
29570;SDS011;16814;52.118;11.436;2022-07-01T06:36:17;4.45;;;1.60;;
29570;SDS011;16814;52.118;11.436;2022-07-01T06:38:44;2.80;;;2.00;;
29570;SDS011;16814;52.118;11.436;2022-07-01T06:41:11;6.63;;;2.03;;
29570;SDS011;16814;52.118;11.436;2022-07-01T06:43:53;2.30;;;1.80;;
29570;SDS011;16814;52.118;11.436;2022-07-01T06:46:26;2.78;;;2.10;;
29570;SDS011;16814;52.118;11.436;2022-07-01T06:48:52;5.07;;;2.20;;
29570;SDS011;16814;52.118;11.436;2022-07-01T06:51:22;3.03;;;2.28;;
29570;SDS011;16814;52.118;11.436;2022-07-01T06:53:49;2.92;;;2.50;;
29570;SDS011;16814;52.118;11.436;2022-07-01T06:56:16;6.60;;;2.95;;
29570;SDS011;16814;52.118;11.436;2022-07-01T06:58:43;9.05;;;3.78;;
29570;SDS011;16814;52.118;11.436;2022-07-01T07:01:10;5.22;;;3.20;;
29570;SDS011;16814;52.118;11.436;2022-07-01T07:03:37;4.80;;;3.03;;
29570;SDS011;16814;52.118;11.436;2022-07-01T07:06:04;10.97;;;3.50;;
29570;SDS011;16814;52.118;11.436;2022-07-01T07:08:32;11.97;;;3.43;;
29570;SDS011;16814;52.118;11.436;2022-07-01T07:10:58;7.13;;;3.65;;
29570;SDS011;16814;52.118;11.436;2022-07-01T07:13:25;5.97;;;3.50;;
29570;SDS011;16814;52.118;11.436;2022-07-01T07:15:52;5.97;;;3.58;;
29570;SDS011;16814;52.118;11.436;2022-07-01T07:18:20;8.90;;;3.60;;
29570;SDS011;16814;52.118;11.436;2022-07-01T07:20:47;6.60;;;3.83;;
29570;SDS011;16814;52.118;11.436;2022-07-01T07:23:13;4.82;;;3.50;;
29570;SDS011;16814;52.118;11.436;2022-07-01T07:25:42;9.35;;;4.00;;
29570;SDS011;16814;52.118;11.436;2022-07-01T07:28:09;10.40;;;4.13;;
29570;SDS011;16814;52.118;11.436;2022-07-01T07:30:35;7.23;;;3.93;;
29570;SDS011;16814;52.118;11.436;2022-07-01T07:33:02;8.70;;;3.85;;
29570;SDS011;16814;52.118;11.436;2022-07-01T07:35:29;5.05;;;4.00;;
29570;SDS011;16814;52.118;11.436;2022-07-01T07:37:57;8.30;;;4.60;;
29570;SDS011;16814;52.118;11.436;2022-07-01T07:40:23;8.02;;;3.92;;
29570;SDS011;16814;52.118;11.436;2022-07-01T07:42:52;7.15;;;4.30;;
29570;SDS011;16814;52.118;11.436;2022-07-01T07:45:20;7.95;;;4.60;;
29570;SDS011;16814;52.118;11.436;2022-07-01T07:47:48;8.98;;;4.80;;
29570;SDS011;16814;52.118;11.436;2022-07-01T07:50:17;5.55;;;4.78;;
29570;SDS011;16814;52.118;11.436;2022-07-01T07:52:42;5.90;;;4.85;;
29570;SDS011;16814;52.118;11.436;2022-07-01T07:55:17;7.03;;;4.60;;
29570;SDS011;16814;52.118;11.436;2022-07-01T07:57:44;5.20;;;4.22;;
29570;SDS011;16814;52.118;11.436;2022-07-01T08:00:12;8.75;;;4.65;;
29570;SDS011;16814;52.118;11.436;2022-07-01T08:02:39;10.48;;;4.40;;
29570;SDS011;16814;52.118;11.436;2022-07-01T08:05:08;5.72;;;4.40;;
29570;SDS011;16814;52.118;11.436;2022-07-01T08:07:36;9.75;;;4.10;;
29570;SDS011;16814;52.118;11.436;2022-07-01T08:10:09;9.23;;;3.97;;
29570;SDS011;16814;52.118;11.436;2022-07-01T08:12:36;5.28;;;3.42;;
29570;SDS011;16814;52.118;11.436;2022-07-01T08:15:06;5.75;;;3.03;;
29570;SDS011;16814;52.118;11.436;2022-07-01T08:17:33;8.00;;;3.28;;
29570;SDS011;16814;52.118;11.436;2022-07-01T08:20:02;8.52;;;3.40;;
29570;SDS011;16814;52.118;11.436;2022-07-01T08:22:30;6.43;;;3.33;;
29570;SDS011;16814;52.118;11.436;2022-07-01T08:24:59;6.35;;;3.70;;
29570;SDS011;16814;52.118;11.436;2022-07-01T08:27:29;6.68;;;4.05;;
29570;SDS011;16814;52.118;11.436;2022-07-01T08:29:55;8.68;;;4.15;;
29570;SDS011;16814;52.118;11.436;2022-07-01T08:32:22;6.88;;;4.43;;
29570;SDS011;16814;52.118;11.436;2022-07-01T08:34:51;9.05;;;4.30;;
29570;SDS011;16814;52.118;11.436;2022-07-01T08:37:18;7.65;;;4.22;;
29570;SDS011;16814;52.118;11.436;2022-07-01T08:39:44;7.15;;;4.28;;
29570;SDS011;16814;52.118;11.436;2022-07-01T08:42:11;6.82;;;4.40;;
29570;SDS011;16814;52.118;11.436;2022-07-01T08:44:37;7.45;;;3.80;;
29570;SDS011;16814;52.118;11.436;2022-07-01T08:47:03;6.05;;;3.55;;
29570;SDS011;16814;52.118;11.436;2022-07-01T08:49:31;7.20;;;3.60;;
29570;SDS011;16814;52.118;11.436;2022-07-01T08:51:57;5.97;;;3.80;;
29570;SDS011;16814;52.118;11.436;2022-07-01T08:54:22;5.27;;;3.60;;
29570;SDS011;16814;52.118;11.436;2022-07-01T08:56:51;6.25;;;3.30;;
29570;SDS011;16814;52.118;11.436;2022-07-01T08:59:21;5.28;;;3.30;;
29570;SDS011;16814;52.118;11.436;2022-07-01T09:01:57;4.78;;;3.33;;
29570;SDS011;16814;52.118;11.436;2022-07-01T09:04:30;6.38;;;3.70;;
29570;SDS011;16814;52.118;11.436;2022-07-01T09:07:06;5.93;;;3.87;;
29570;SDS011;16814;52.118;11.436;2022-07-01T09:09:35;6.88;;;4.03;;
29570;SDS011;16814;52.118;11.436;2022-07-01T09:12:02;6.45;;;4.53;;
29570;SDS011;16814;52.118;11.436;2022-07-01T09:14:32;6.50;;;4.20;;
29570;SDS011;16814;52.118;11.436;2022-07-01T09:17:03;6.15;;;4.55;;
29570;SDS011;16814;52.118;11.436;2022-07-01T09:19:37;8.05;;;4.43;;
29570;SDS011;16814;52.118;11.436;2022-07-01T09:22:03;6.43;;;4.25;;
29570;SDS011;16814;52.118;11.436;2022-07-01T09:24:36;8.57;;;4.40;;
29570;SDS011;16814;52.118;11.436;2022-07-01T09:27:11;6.63;;;4.35;;
29570;SDS011;16814;52.118;11.436;2022-07-01T09:29:41;8.95;;;5.00;;
29570;SDS011;16814;52.118;11.436;2022-07-01T09:32:18;6.10;;;4.18;;
29570;SDS011;16814;52.118;11.436;2022-07-01T09:34:47;7.07;;;4.35;;
29570;SDS011;16814;52.118;11.436;2022-07-01T09:37:16;9.25;;;4.50;;
29570;SDS011;16814;52.118;11.436;2022-07-01T09:39:49;6.40;;;4.38;;
29570;SDS011;16814;52.118;11.436;2022-07-01T09:42:23;5.93;;;4.22;;
29570;SDS011;16814;52.118;11.436;2022-07-01T09:45:05;6.10;;;4.18;;
29570;SDS011;16814;52.118;11.436;2022-07-01T09:47:40;6.47;;;4.13;;
29570;SDS011;16814;52.118;11.436;2022-07-01T09:50:09;7.65;;;3.97;;
29570;SDS011;16814;52.118;11.436;2022-07-01T09:52:41;5.47;;;4.20;;
29570;SDS011;16814;52.118;11.436;2022-07-01T09:55:08;6.78;;;4.22;;
29570;SDS011;16814;52.118;11.436;2022-07-01T09:57:39;5.93;;;4.28;;
29570;SDS011;16814;52.118;11.436;2022-07-01T10:00:06;5.55;;;3.80;;
29570;SDS011;16814;52.118;11.436;2022-07-01T10:02:34;5.90;;;3.88;;
29570;SDS011;16814;52.118;11.436;2022-07-01T10:05:13;8.77;;;4.40;;
29570;SDS011;16814;52.118;11.436;2022-07-01T10:10:26;4.82;;;3.90;;
29570;SDS011;16814;52.118;11.436;2022-07-01T10:13:12;5.47;;;3.70;;
29570;SDS011;16814;52.118;11.436;2022-07-01T10:15:42;5.55;;;4.05;;
29570;SDS011;16814;52.118;11.436;2022-07-01T10:18:20;6.68;;;3.70;;
29570;SDS011;16814;52.118;11.436;2022-07-01T10:20:50;6.97;;;3.50;;
29570;SDS011;16814;52.118;11.436;2022-07-01T10:23:19;5.40;;;3.17;;
29570;SDS011;16814;52.118;11.436;2022-07-01T10:25:49;5.82;;;2.72;;
29570;SDS011;16814;52.118;11.436;2022-07-01T10:31:02;1.83;;;1.63;;
29570;SDS011;16814;52.118;11.436;2022-07-01T10:33:47;4.18;;;1.92;;
29570;SDS011;16814;52.118;11.436;2022-07-01T10:36:26;3.78;;;1.90;;
29570;SDS011;16814;52.118;11.436;2022-07-01T10:41:35;2.83;;;1.92;;
29570;SDS011;16814;52.118;11.436;2022-07-01T10:44:11;4.30;;;2.20;;
29570;SDS011;16814;52.118;11.436;2022-07-01T10:46:46;1.90;;;1.70;;
29570;SDS011;16814;52.118;11.436;2022-07-01T10:52:00;3.22;;;2.00;;
29570;SDS011;16814;52.118;11.436;2022-07-01T10:59:49;4.13;;;2.20;;
29570;SDS011;16814;52.118;11.436;2022-07-01T11:02:28;3.20;;;2.50;;
29570;SDS011;16814;52.118;11.436;2022-07-01T11:04:59;6.35;;;2.40;;
29570;SDS011;16814;52.118;11.436;2022-07-01T11:07:29;5.87;;;2.60;;
29570;SDS011;16814;52.118;11.436;2022-07-01T11:09:59;4.50;;;2.50;;
29570;SDS011;16814;52.118;11.436;2022-07-01T11:12:27;5.15;;;2.85;;
29570;SDS011;16814;52.118;11.436;2022-07-01T11:14:54;3.70;;;3.00;;
29570;SDS011;16814;52.118;11.436;2022-07-01T11:17:30;3.80;;;2.92;;
29570;SDS011;16814;52.118;11.436;2022-07-01T11:19:58;4.87;;;3.40;;
29570;SDS011;16814;52.118;11.436;2022-07-01T11:22:29;4.00;;;3.28;;
29570;SDS011;16814;52.118;11.436;2022-07-01T11:25:06;6.88;;;4.00;;
29570;SDS011;16814;52.118;11.436;2022-07-01T11:27:34;5.60;;;3.80;;
29570;SDS011;16814;52.118;11.436;2022-07-01T11:30:08;5.20;;;4.00;;
29570;SDS011;16814;52.118;11.436;2022-07-01T11:32:41;5.57;;;3.78;;
29570;SDS011;16814;52.118;11.436;2022-07-01T11:35:19;6.82;;;4.30;;
29570;SDS011;16814;52.118;11.436;2022-07-01T11:38:17;6.63;;;4.18;;
29570;SDS011;16814;52.118;11.436;2022-07-01T11:41:06;5.47;;;4.22;;
29570;SDS011;16814;52.118;11.436;2022-07-01T11:43:44;9.50;;;4.68;;
29570;SDS011;16814;52.118;11.436;2022-07-01T11:46:11;6.88;;;4.93;;
29570;SDS011;16814;52.118;11.436;2022-07-01T11:48:44;8.18;;;4.95;;
29570;SDS011;16814;52.118;11.436;2022-07-01T11:51:21;6.90;;;4.40;;
29570;SDS011;16814;52.118;11.436;2022-07-01T11:53:50;7.43;;;4.50;;
29570;SDS011;16814;52.118;11.436;2022-07-01T11:56:48;7.82;;;4.35;;
29570;SDS011;16814;52.118;11.436;2022-07-01T11:59:16;5.18;;;3.78;;
29570;SDS011;16814;52.118;11.436;2022-07-01T12:01:50;8.98;;;4.00;;
29570;SDS011;16814;52.118;11.436;2022-07-01T12:04:36;5.30;;;3.80;;
29570;SDS011;16814;52.118;11.436;2022-07-01T12:07:04;6.30;;;4.05;;
29570;SDS011;16814;52.118;11.436;2022-07-01T12:09:35;4.57;;;3.70;;
29570;SDS011;16814;52.118;11.436;2022-07-01T12:12:07;6.30;;;4.13;;
29570;SDS011;16814;52.118;11.436;2022-07-01T12:14:48;5.68;;;4.35;;
29570;SDS011;16814;52.118;11.436;2022-07-01T12:17:23;6.05;;;4.10;;
29570;SDS011;16814;52.118;11.436;2022-07-01T12:19:50;5.28;;;4.25;;
29570;SDS011;16814;52.118;11.436;2022-07-01T12:22:23;5.07;;;4.18;;
29570;SDS011;16814;52.118;11.436;2022-07-01T12:25:07;5.78;;;4.13;;
29570;SDS011;16814;52.118;11.436;2022-07-01T12:27:36;8.10;;;4.50;;
29570;SDS011;16814;52.118;11.436;2022-07-01T12:30:05;5.07;;;4.20;;
29570;SDS011;16814;52.118;11.436;2022-07-01T12:32:35;6.15;;;4.50;;
29570;SDS011;16814;52.118;11.436;2022-07-01T12:35:04;6.20;;;4.60;;
29570;SDS011;16814;52.118;11.436;2022-07-01T12:37:59;4.95;;;3.97;;
29570;SDS011;16814;52.118;11.436;2022-07-01T12:40:28;6.68;;;4.45;;
29570;SDS011;16814;52.118;11.436;2022-07-01T12:42:56;5.07;;;4.50;;
29570;SDS011;16814;52.118;11.436;2022-07-01T12:45:26;5.57;;;4.43;;
29570;SDS011;16814;52.118;11.436;2022-07-01T12:47:53;6.68;;;4.18;;
29570;SDS011;16814;52.118;11.436;2022-07-01T12:50:28;7.85;;;4.32;;
29570;SDS011;16814;52.118;11.436;2022-07-01T12:55:39;5.22;;;3.65;;
29570;SDS011;16814;52.118;11.436;2022-07-01T12:58:19;6.15;;;3.97;;
29570;SDS011;16814;52.118;11.436;2022-07-01T13:00:49;8.27;;;4.28;;
29570;SDS011;16814;52.118;11.436;2022-07-01T13:03:20;6.75;;;4.63;;
29570;SDS011;16814;52.118;11.436;2022-07-01T13:05:47;8.13;;;4.38;;
29570;SDS011;16814;52.118;11.436;2022-07-01T13:08:14;6.15;;;4.18;;
29570;SDS011;16814;52.118;11.436;2022-07-01T13:10:41;5.87;;;4.50;;
29570;SDS011;16814;52.118;11.436;2022-07-01T13:13:11;5.68;;;4.00;;
29570;SDS011;16814;52.118;11.436;2022-07-01T13:15:39;5.53;;;4.20;;
29570;SDS011;16814;52.118;11.436;2022-07-01T13:18:06;6.75;;;3.95;;
29570;SDS011;16814;52.118;11.436;2022-07-01T13:20:31;6.93;;;3.90;;
29570;SDS011;16814;52.118;11.436;2022-07-01T13:22:59;9.55;;;4.90;;
29570;SDS011;16814;52.118;11.436;2022-07-01T13:25:26;7.82;;;4.63;;
29570;SDS011;16814;52.118;11.436;2022-07-01T13:27:52;9.80;;;4.75;;
29570;SDS011;16814;52.118;11.436;2022-07-01T13:30:20;9.63;;;5.28;;
29570;SDS011;16814;52.118;11.436;2022-07-01T13:32:50;7.55;;;5.25;;
29570;SDS011;16814;52.118;11.436;2022-07-01T13:35:20;9.13;;;5.50;;
29570;SDS011;16814;52.118;11.436;2022-07-01T13:37:50;6.60;;;4.90;;
29570;SDS011;16814;52.118;11.436;2022-07-01T13:40:18;7.63;;;5.65;;
29570;SDS011;16814;52.118;11.436;2022-07-01T13:42:48;7.65;;;5.75;;
29570;SDS011;16814;52.118;11.436;2022-07-01T13:45:15;8.02;;;6.00;;
29570;SDS011;16814;52.118;11.436;2022-07-01T13:47:42;8.68;;;5.90;;
29570;SDS011;16814;52.118;11.436;2022-07-01T13:50:11;10.13;;;6.07;;
29570;SDS011;16814;52.118;11.436;2022-07-01T13:52:39;11.93;;;6.55;;
29570;SDS011;16814;52.118;11.436;2022-07-01T13:55:04;9.93;;;7.10;;
29570;SDS011;16814;52.118;11.436;2022-07-01T13:57:39;9.57;;;6.93;;
29570;SDS011;16814;52.118;11.436;2022-07-01T14:00:06;11.13;;;6.97;;
29570;SDS011;16814;52.118;11.436;2022-07-01T14:02:35;9.68;;;6.45;;
29570;SDS011;16814;52.118;11.436;2022-07-01T14:05:00;8.70;;;6.40;;
29570;SDS011;16814;52.118;11.436;2022-07-01T14:07:35;11.35;;;6.85;;
29570;SDS011;16814;52.118;11.436;2022-07-01T14:10:02;11.63;;;6.80;;
29570;SDS011;16814;52.118;11.436;2022-07-01T14:12:28;11.25;;;6.45;;
29570;SDS011;16814;52.118;11.436;2022-07-01T14:14:56;13.05;;;7.18;;
29570;SDS011;16814;52.118;11.436;2022-07-01T14:17:24;12.48;;;7.35;;
29570;SDS011;16814;52.118;11.436;2022-07-01T14:19:52;12.13;;;8.18;;
29570;SDS011;16814;52.118;11.436;2022-07-01T14:22:23;10.85;;;7.53;;
29570;SDS011;16814;52.118;11.436;2022-07-01T14:24:51;12.97;;;7.57;;
29570;SDS011;16814;52.118;11.436;2022-07-01T14:27:17;15.15;;;9.18;;
29570;SDS011;16814;52.118;11.436;2022-07-01T14:29:46;13.20;;;8.88;;
29570;SDS011;16814;52.118;11.436;2022-07-01T14:32:15;14.23;;;8.95;;
29570;SDS011;16814;52.118;11.436;2022-07-01T14:34:41;15.13;;;8.73;;
29570;SDS011;16814;52.118;11.436;2022-07-01T14:37:09;13.60;;;8.77;;
29570;SDS011;16814;52.118;11.436;2022-07-01T14:39:36;12.55;;;8.88;;
29570;SDS011;16814;52.118;11.436;2022-07-01T14:42:05;14.50;;;9.13;;
29570;SDS011;16814;52.118;11.436;2022-07-01T14:44:32;15.63;;;8.90;;
29570;SDS011;16814;52.118;11.436;2022-07-01T14:47:03;13.60;;;9.10;;
29570;SDS011;16814;52.118;11.436;2022-07-01T14:49:30;14.45;;;8.77;;
29570;SDS011;16814;52.118;11.436;2022-07-01T14:51:56;11.53;;;8.37;;
29570;SDS011;16814;52.118;11.436;2022-07-01T14:54:34;13.05;;;9.02;;
29570;SDS011;16814;52.118;11.436;2022-07-01T14:57:01;16.17;;;8.70;;
29570;SDS011;16814;52.118;11.436;2022-07-01T14:59:27;13.45;;;9.13;;